Time;durP1;ratioP1;P1;durP2;ratioP2;P2;SDS_P1;SDS_P2;PMS_P1;PMS_P2;Temp;Humidity;BMP_temperature;BMP_pressure;BME280_temperature;BME280_humidity;BME280_pressure;Samples;Min_cycle;Max_cycle;Signal;HPM_P1;HPM_P2
2022/12/28 00:02:16;;;;;;;;;8.00;8.00;;;;;9.97;100.00;101680.50;5078686;28;45465;-81
2022/12/28 00:04:41;;;;;;;;;6.33;5.67;;;;;9.90;100.00;101658.19;5060708;28;45457;-81
2022/12/28 00:07:07;;;;;;;;;8.00;8.00;;;;;10.03;100.00;101672.94;5078737;28;45332;-81
2022/12/28 00:09:33;;;;;;;;;7.00;7.00;;;;;9.92;100.00;101650.06;5056580;28;47535;-81
2022/12/28 00:11:58;;;;;;;;;6.00;6.00;;;;;10.03;100.00;101663.13;5052974;28;45351;-82
2022/12/28 00:14:24;;;;;;;;;7.67;7.33;;;;;9.87;100.00;101637.22;5078315;28;45409;-81
2022/12/28 00:16:49;;;;;;;;;7.67;6.67;;;;;9.97;100.00;101653.13;5060363;28;46984;-81
2022/12/28 00:19:15;;;;;;;;;7.00;7.00;;;;;10.04;100.00;101658.66;5078049;27;47102;-81
2022/12/28 00:21:42;;;;;;;;;8.33;7.00;;;;;10.01;100.00;101645.69;5060503;28;45210;-80
2022/12/28 00:24:16;;;;;;;;;6.00;6.00;;;;;10.05;100.00;101644.41;5078423;28;45336;-81
2022/12/28 00:26:42;;;;;;;;;5.33;5.33;;;;;10.00;100.00;101634.25;5080932;28;45454;-81
2022/12/28 00:29:07;;;;;;;;;4.67;4.67;;;;;10.05;100.00;101642.59;5063338;28;47028;-81
2022/12/28 00:31:33;;;;;;;;;5.00;5.00;;;;;10.06;100.00;101646.09;5081785;28;45386;-81
2022/12/28 00:33:58;;;;;;;;;6.67;6.33;;;;;9.95;100.00;101626.72;5081896;28;45633;-81
2022/12/28 00:36:24;;;;;;;;;6.00;6.00;;;;;10.06;100.00;101644.25;5082033;28;45352;-80
2022/12/28 00:38:49;;;;;;;;;6.67;5.67;;;;;10.10;100.00;101645.66;5063450;28;47205;-82
2022/12/28 00:41:14;;;;;;;;;6.67;6.00;;;;;9.89;100.00;101611.38;5063555;28;45449;-82
2022/12/28 00:43:40;;;;;;;;;6.00;6.00;;;;;10.07;100.00;101626.50;5081735;28;45763;-81
2022/12/28 00:46:05;;;;;;;;;6.00;6.00;;;;;10.09;100.00;101628.03;5073489;28;45288;-82
2022/12/28 00:48:31;;;;;;;;;7.00;7.00;;;;;10.18;100.00;101634.25;5071133;28;45339;-81
2022/12/28 00:51:25;;;;;;;;;4.67;4.67;;;;;10.15;100.00;101618.59;5081763;28;45334;-82
2022/12/28 00:53:51;;;;;;;;;5.00;5.00;;;;;10.21;100.00;101623.34;5058724;28;46511;-81
2022/12/28 00:56:19;;;;;;;;;5.33;5.33;;;;;10.25;100.00;101617.72;5063155;28;46821;-82
2022/12/28 00:58:45;;;;;;;;;6.00;5.00;;;;;10.21;100.00;101622.50;5081456;28;45322;-82
2022/12/28 01:01:21;;;;;;;;;4.33;4.33;;;;;10.23;100.00;101608.09;5063182;28;45723;-81
2022/12/28 01:03:47;;;;;;;;;4.00;4.00;;;;;10.25;100.00;101610.59;5081279;28;45386;-81
2022/12/28 01:06:14;;;;;;;;;4.00;4.00;;;;;10.28;100.00;101610.28;5062893;28;46947;-81
2022/12/28 01:08:40;;;;;;;;;5.00;4.00;;;;;10.25;100.00;101593.81;5068669;28;46174;-81
2022/12/28 01:11:11;;;;;;;;;4.00;4.00;;;;;10.18;100.00;101577.66;5061697;28;45470;-81
2022/12/28 01:13:36;;;;;;;;;4.00;4.00;;;;;10.23;100.00;101583.31;5050242;28;45331;-81
2022/12/28 01:16:17;;;;;;;;;3.67;3.67;;;;;10.30;100.00;101586.22;5061145;28;45745;-79
2022/12/28 01:18:44;;;;;;;;;6.00;5.00;;;;;10.33;100.00;101581.44;5060447;28;46178;-81
2022/12/28 01:21:15;;;;;;;;;4.67;4.67;;;;;10.36;100.00;101586.44;5051135;28;46144;-82
2022/12/28 01:23:41;;;;;;;;;6.67;5.33;;;;;10.39;100.00;101590.66;5062788;28;45592;-81
2022/12/28 01:26:07;;;;;;;;;3.33;3.00;;;;;10.39;100.00;101593.31;5081265;28;45342;-80
2022/12/28 01:28:33;;;;;;;;;5.00;5.00;;;;;10.39;100.00;101595.13;5080787;28;45277;-82
2022/12/28 01:31:13;;;;;;;;;6.67;4.00;;;;;10.40;100.00;101588.81;5081063;28;45272;-81
2022/12/28 01:33:39;;;;;;;;;6.00;5.00;;;;;10.38;100.00;101577.50;5080715;28;45416;-81
2022/12/28 01:36:14;;;;;;;;;3.00;3.00;;;;;10.48;100.00;101596.91;5062655;28;45921;-81
2022/12/28 01:38:40;;;;;;;;;5.67;4.33;;;;;10.47;100.00;101593.38;5061483;28;48693;-81
2022/12/28 01:41:12;;;;;;;;;4.00;4.00;;;;;10.47;100.00;101584.56;5062590;28;45374;-81
2022/12/28 01:43:41;;;;;;;;;5.33;5.00;;;;;10.48;100.00;101595.06;5080629;28;45375;-82
2022/12/28 01:46:09;;;;;;;;;7.67;6.00;;;;;10.50;100.00;101589.59;5080847;28;45387;-82
2022/12/28 01:48:39;;;;;;;;;4.00;4.00;;;;;10.48;100.00;101581.75;5058805;28;47158;-82
2022/12/28 01:51:05;;;;;;;;;5.00;5.00;;;;;10.54;100.00;101584.81;5055546;28;45366;-81
2022/12/28 01:53:30;;;;;;;;;4.67;4.67;;;;;10.48;100.00;101581.75;5049845;28;45307;-81
2022/12/28 01:55:56;;;;;;;;;5.00;5.00;;;;;10.51;100.00;101578.00;5080542;28;45391;-81
2022/12/28 01:58:29;;;;;;;;;5.00;4.33;;;;;10.49;100.00;101569.31;5080752;28;45336;-81
2022/12/28 02:00:54;;;;;;;;;6.67;5.00;;;;;10.46;100.00;101566.97;5066786;27;45545;-81
2022/12/28 02:03:26;;;;;;;;;4.00;4.00;;;;;10.57;100.00;101580.00;5062019;28;45366;-81
2022/12/28 02:05:58;;;;;;;;;4.33;4.33;;;;;10.64;100.00;101590.03;5080168;28;45467;-81
2022/12/28 02:08:31;;;;;;;;;5.00;5.00;;;;;10.47;100.00;101550.88;5080101;28;45425;-81
2022/12/28 02:10:57;;;;;;;;;6.00;5.33;;;;;10.65;100.00;101579.25;5080221;28;45354;-82
2022/12/28 02:13:23;;;;;;;;;6.00;6.00;;;;;10.62;100.00;101566.25;5074181;28;45363;-81
2022/12/28 02:15:49;;;;;;;;;4.67;4.67;;;;;10.69;100.00;101572.63;5053369;28;47327;-82
2022/12/28 02:18:18;;;;;;;;;4.00;3.00;;;;;10.66;100.00;101570.31;5077598;28;45372;-82
2022/12/28 02:21:02;;;;;;;;;5.00;5.00;;;;;10.71;100.00;101568.00;5077626;27;45521;-81
2022/12/28 02:23:46;;;;;;;;;4.67;4.67;;;;;10.71;100.00;101560.03;5068449;27;45689;-81
2022/12/28 02:26:29;;;;;;;;;5.67;5.67;;;;;10.69;100.00;101554.00;5079783;27;46171;-81
2022/12/28 02:29:31;;;;;;;;;6.00;4.67;;;;;10.69;100.00;101559.31;5079233;27;47585;-81
2022/12/28 02:32:32;;;;;;;;;6.67;6.00;;;;;10.63;100.00;101546.69;5089609;27;45403;-82
2022/12/28 02:35:00;;;;;;;;;3.67;3.67;;;;;10.68;100.00;101555.00;5084622;27;45534;-82
2022/12/28 02:37:33;;;;;;;;;1.33;1.00;;;;;10.60;100.00;101539.81;5097854;27;45413;-82
2022/12/28 02:40:07;;;;;;;;;7.33;7.33;;;;;10.66;100.00;101542.88;5097913;27;45752;-81
2022/12/28 02:42:35;;;;;;;;;6.67;5.33;;;;;10.70;100.00;101541.56;5079471;27;46069;-81
2022/12/28 02:50:58;;;;;;;;;4.67;4.67;;;;;10.66;100.00;101514.47;5088446;27;45788;-82
2022/12/28 02:53:26;;;;;;;;;4.00;4.00;;;;;10.76;100.00;101526.81;5064133;27;68145;-81
2022/12/28 02:56:17;;;;;;;;;5.67;5.67;;;;;10.76;100.00;101518.81;5081965;27;45487;-82
2022/12/28 02:59:19;;;;;;;;;5.67;3.67;;;;;10.78;100.00;101524.84;5099999;27;45579;-82
2022/12/28 03:02:17;;;;;;;;;5.67;5.67;;;;;10.78;100.00;101525.69;5081469;27;47666;-82
2022/12/28 03:04:55;;;;;;;;;5.00;5.00;;;;;10.79;100.00;101519.38;5093563;27;45498;-81
2022/12/28 03:08:18;;;;;;;;;5.00;4.00;;;;;10.79;100.00;101518.53;5093200;27;45517;-81
2022/12/28 03:11:09;;;;;;;;;5.67;5.00;;;;;10.81;100.00;101516.56;5077435;27;46075;-82
2022/12/28 03:13:47;;;;;;;;;5.67;5.67;;;;;10.81;100.00;101519.22;5077872;28;48410;-81
2022/12/28 03:16:23;;;;;;;;;6.00;5.33;;;;;10.80;100.00;101518.38;5065532;28;46060;-81
2022/12/28 03:32:50;;;;;;;;;8.00;5.67;;;;;10.81;100.00;101500.59;5078895;28;45317;-81
2022/12/28 03:35:18;;;;;;;;;5.00;4.33;;;;;10.81;100.00;101503.25;5078928;28;46091;-82
2022/12/28 03:38:01;;;;;;;;;5.67;5.67;;;;;10.81;100.00;101497.94;5079375;28;45358;-82
2022/12/28 03:40:36;;;;;;;;;5.67;5.67;;;;;10.76;100.00;101478.94;5057336;28;45279;-82
2022/12/28 03:43:40;;;;;;;;;5.33;4.33;;;;;10.78;100.00;101476.97;5054858;28;45497;-82
2022/12/28 03:46:18;;;;;;;;;5.00;4.00;;;;;10.84;100.00;101494.97;5060635;28;48332;-82
2022/12/28 03:48:45;;;;;;;;;5.67;5.00;;;;;10.83;100.00;101485.31;5066722;28;45393;-82
2022/12/28 03:51:13;;;;;;;;;6.67;6.67;;;;;10.85;100.00;101480.66;5061035;28;45375;-81
2022/12/28 03:53:41;;;;;;;;;6.00;5.67;;;;;10.78;100.00;101467.19;5079001;28;45296;-81
2022/12/28 03:56:19;;;;;;;;;4.67;4.67;;;;;10.84;100.00;101468.38;5076492;28;45561;-82
2022/12/28 03:58:45;;;;;;;;;5.33;5.00;;;;;10.80;100.00;101459.03;5069170;28;45305;-81
2022/12/28 04:01:11;;;;;;;;;8.00;6.67;;;;;10.81;100.00;101452.72;5063622;28;45316;-81
2022/12/28 04:03:36;;;;;;;;;6.00;6.00;;;;;10.83;100.00;101464.03;5043806;28;46977;-79
2022/12/28 04:06:02;;;;;;;;;6.00;5.00;;;;;10.82;100.00;101451.72;5063516;28;47180;-80
2022/12/28 04:08:28;;;;;;;;;4.33;4.33;;;;;10.86;100.00;101463.72;5053352;28;45410;-79
2022/12/28 04:10:53;;;;;;;;;8.33;7.00;;;;;10.81;100.00;101442.91;5066000;28;45305;-80
2022/12/28 04:13:19;;;;;;;;;7.33;6.33;;;;;10.86;100.00;101455.72;5060819;28;46659;-79
2022/12/28 04:15:55;;;;;;;;;5.67;4.33;;;;;10.86;100.00;101445.09;5060862;28;48328;-79
2022/12/28 04:18:20;;;;;;;;;6.33;6.00;;;;;10.87;100.00;101444.13;5080673;28;45355;-80
2022/12/28 04:20:45;;;;;;;;;8.33;7.33;;;;;10.88;100.00;101442.28;5081899;27;45287;-80
2022/12/28 04:23:11;;;;;;;;;5.67;5.67;;;;;10.77;100.00;101416.81;5063937;28;46056;-80
2022/12/28 04:25:36;;;;;;;;;3.67;3.67;;;;;10.84;100.00;101436.47;5063713;28;47906;-80
2022/12/28 04:28:01;;;;;;;;;4.67;4.67;;;;;10.77;100.00;101424.78;5081969;28;45311;-80
2022/12/28 04:30:27;;;;;;;;;6.00;4.00;;;;;10.82;100.00;101423.31;5077297;27;46507;-80
2022/12/28 04:32:54;;;;;;;;;4.00;4.00;;;;;10.81;100.00;101426.13;5054928;28;47605;-80
2022/12/28 04:35:20;;;;;;;;;4.00;4.00;;;;;10.83;100.00;101417.00;5076486;28;45304;-80
2022/12/28 04:37:45;;;;;;;;;3.67;3.67;;;;;10.71;100.00;101403.16;5073710;28;45276;-81
2022/12/28 04:40:11;;;;;;;;;4.00;4.00;;;;;10.84;100.00;101423.97;5081545;28;45505;-79
2022/12/28 04:42:36;;;;;;;;;3.33;3.33;;;;;10.84;100.00;101420.50;5081265;28;45481;-80
2022/12/28 04:45:02;;;;;;;;;6.33;5.00;;;;;10.82;100.00;101423.31;5063313;28;47189;-80
2022/12/28 04:47:27;;;;;;;;;4.33;4.00;;;;;10.77;100.00;101416.81;5063503;28;45268;-80
2022/12/28 04:49:52;;;;;;;;;4.67;4.67;;;;;10.80;100.00;101419.13;5081670;28;45795;-80
2022/12/28 04:52:18;;;;;;;;;5.33;4.67;;;;;10.71;100.00;101411.13;5081708;28;45200;-80
2022/12/28 04:54:43;;;;;;;;;5.00;5.00;;;;;10.72;100.00;101410.13;5081572;28;45318;-79
2022/12/28 04:57:08;;;;;;;;;5.00;5.00;;;;;10.71;100.00;101408.47;5081736;28;45297;-80
2022/12/28 04:59:34;;;;;;;;;5.33;5.00;;;;;10.68;100.00;101403.47;5063288;28;45303;-79
2022/12/28 05:01:59;;;;;;;;;6.00;6.00;;;;;10.70;100.00;101408.63;5081329;28;45326;-79
2022/12/28 05:04:24;;;;;;;;;4.00;4.00;;;;;10.76;100.00;101415.13;5081316;28;46177;-79
2022/12/28 05:06:50;;;;;;;;;5.33;4.67;;;;;10.70;100.00;101403.31;5063085;28;45324;-79
2022/12/28 05:09:17;;;;;;;;;4.67;4.00;;;;;10.75;100.00;101408.16;5067600;28;45249;-80
2022/12/28 05:11:42;;;;;;;;;4.00;4.00;;;;;10.70;100.00;101401.50;5062377;28;46311;-79
2022/12/28 05:14:08;;;;;;;;;5.00;4.00;;;;;10.69;100.00;101393.69;5062599;28;48348;-80
2022/12/28 05:16:33;;;;;;;;;6.00;4.33;;;;;10.66;100.00;101389.53;5063033;28;45401;-80
2022/12/28 05:18:58;;;;;;;;;6.33;4.67;;;;;10.73;100.00;101398.53;5084538;27;45283;-79
2022/12/28 05:21:26;;;;;;;;;4.00;3.33;;;;;10.73;100.00;101401.19;5091234;27;45335;-80
2022/12/28 05:23:52;;;;;;;;;5.00;5.00;;;;;10.72;100.00;101396.03;5077218;27;47939;-80
2022/12/28 05:26:21;;;;;;;;;6.33;5.00;;;;;10.69;100.00;101386.53;5101721;27;45226;-81
2022/12/28 05:28:47;;;;;;;;;3.33;3.33;;;;;10.72;100.00;101393.38;5101471;27;45240;-80
2022/12/28 05:31:15;;;;;;;;;4.00;4.00;;;;;10.61;100.00;101365.22;5101512;27;45363;-81
2022/12/28 05:33:42;;;;;;;;;5.00;5.00;;;;;10.71;100.00;101381.03;5087477;27;45413;-81
2022/12/28 05:36:08;;;;;;;;;4.67;4.67;;;;;10.73;100.00;101381.72;5101365;27;45330;-81
2022/12/28 05:38:35;;;;;;;;;6.67;5.67;;;;;10.74;100.00;101383.38;5101388;27;45362;-81
2022/12/28 05:41:17;;;;;;;;;6.00;5.33;;;;;10.72;100.00;101375.56;5101084;27;45473;-81
2022/12/28 05:43:43;;;;;;;;;4.67;4.67;;;;;10.72;100.00;101378.22;5082861;27;48686;-81
2022/12/28 05:46:14;;;;;;;;;6.33;6.00;;;;;10.71;100.00;101379.22;5101266;27;45298;-80
2022/12/28 05:48:41;;;;;;;;;6.00;4.00;;;;;10.65;100.00;101369.22;5082658;27;45436;-80
2022/12/28 05:51:09;;;;;;;;;4.67;4.67;;;;;10.70;100.00;101368.75;5101259;27;45407;-81
2022/12/28 05:53:36;;;;;;;;;4.33;4.33;;;;;10.66;100.00;101376.22;5093183;27;45292;-80
2022/12/28 05:56:07;;;;;;;;;5.00;5.00;;;;;10.67;100.00;101369.06;5077300;27;45353;-80
2022/12/28 05:58:35;;;;;;;;;5.67;5.33;;;;;10.53;100.00;101354.56;5101222;27;45339;-79
2022/12/28 06:01:11;;;;;;;;;6.00;4.00;;;;;10.54;100.00;101349.06;5082322;27;47342;-80
2022/12/28 06:03:38;;;;;;;;;6.00;5.00;;;;;10.61;100.00;101359.91;5090132;27;45529;-80
2022/12/28 06:06:10;;;;;;;;;5.00;4.67;;;;;10.60;100.00;101367.03;5079120;27;46133;-80
2022/12/28 06:08:37;;;;;;;;;5.00;5.00;;;;;10.60;100.00;101360.91;5100967;27;45437;-81
2022/12/28 06:11:06;;;;;;;;;5.33;5.33;;;;;10.51;100.00;101348.56;5100702;27;45369;-80
2022/12/28 06:13:32;;;;;;;;;9.00;5.67;;;;;10.56;100.00;101351.56;5100780;27;45481;-80
2022/12/28 06:15:57;;;;;;;;;6.33;6.33;;;;;10.58;100.00;101357.56;5100333;27;45156;-81
2022/12/28 06:18:27;;;;;;;;;5.67;5.00;;;;;10.54;100.00;101345.59;5089051;27;45430;-81
2022/12/28 06:21:00;;;;;;;;;7.00;5.67;;;;;10.48;100.00;101329.28;5077581;28;47140;-80
2022/12/28 06:23:26;;;;;;;;;5.67;5.67;;;;;10.54;100.00;101341.09;5093377;27;45367;-81
2022/12/28 06:25:51;;;;;;;;;5.00;5.00;;;;;10.48;100.00;101331.13;5082158;27;46202;-80
2022/12/28 06:28:16;;;;;;;;;8.33;7.33;;;;;10.50;100.00;101328.31;5100884;27;45214;-79
2022/12/28 06:30:41;;;;;;;;;6.00;6.00;;;;;10.60;100.00;101342.31;5081897;27;46556;-80
2022/12/28 06:33:07;;;;;;;;;5.00;5.00;;;;;10.50;100.00;101321.16;5100613;27;46038;-80
2022/12/28 06:35:32;;;;;;;;;6.67;6.67;;;;;10.59;100.00;101324.66;5100291;27;45366;-79
2022/12/28 06:37:57;;;;;;;;;7.33;5.67;;;;;10.57;100.00;101321.34;5078795;28;45419;-80
2022/12/28 06:40:23;;;;;;;;;7.67;7.33;;;;;10.54;100.00;101314.50;5095075;27;45452;-80
2022/12/28 06:42:48;;;;;;;;;7.00;7.00;;;;;10.57;100.00;101313.38;5081289;27;47016;-80
2022/12/28 06:45:13;;;;;;;;;6.00;6.00;;;;;10.58;100.00;101312.38;5092605;27;45345;-80
2022/12/28 06:47:39;;;;;;;;;6.33;5.33;;;;;10.48;100.00;101297.38;5100110;27;45303;-79
2022/12/28 06:50:04;;;;;;;;;5.67;5.67;;;;;10.52;100.00;101300.56;5100098;27;45405;-83
2022/12/28 06:52:31;;;;;;;;;6.00;6.00;;;;;10.58;100.00;101299.94;5098929;27;45630;-82
2022/12/28 06:55:17;;;;;;;;;5.00;5.00;;;;;10.39;100.00;101265.59;5069474;27;45370;-81
2022/12/28 06:57:51;;;;;;;;;5.33;5.00;;;;;10.39;100.00;101263.78;5081723;27;45323;-79
2022/12/28 07:00:37;;;;;;;;;0.00;0.00;;;;;10.26;100.00;101242.97;5078241;28;45825;-80
2022/12/28 07:03:08;;;;;;;;;8.00;6.00;;;;;10.27;100.00;101249.97;5082547;27;47972;-79
2022/12/28 07:05:38;;;;;;;;;8.00;6.33;;;;;10.52;100.00;101281.13;5081270;27;45265;-80
2022/12/28 07:08:27;;;;;;;;;6.00;6.00;;;;;10.17;100.00;101215.53;5092358;27;45434;-79
2022/12/28 07:11:02;;;;;;;;;4.67;4.67;;;;;10.69;100.00;101298.78;5099448;27;45393;-80
2022/12/28 07:16:19;;;;;;;;;6.00;6.00;;;;;10.24;100.00;101207.78;5091648;27;45353;-80
2022/12/28 07:18:50;;;;;;;;;6.67;5.33;;;;;10.21;100.00;101206.25;5099303;27;45313;-80
2022/12/28 07:21:33;;;;;;;;;6.67;6.00;;;;;10.60;100.00;101262.56;5078283;27;45692;-79
2022/12/28 07:24:10;;;;;;;;;4.00;4.00;;;;;10.48;100.00;101248.75;5070591;27;46470;-78
2022/12/28 07:26:47;;;;;;;;;6.00;6.00;;;;;10.70;100.00;101283.69;5097824;27;45419;-79
2022/12/28 07:29:56;;;;;;;;;7.33;6.00;;;;;10.56;100.00;101246.09;5088060;27;45406;-78
2022/12/28 07:32:24;;;;;;;;;6.00;6.00;;;;;10.39;100.00;101213.31;5102843;27;45541;-78
2022/12/28 07:34:55;;;;;;;;;11.67;11.33;;;;;10.28;100.00;101194.97;5077534;28;45604;-78
2022/12/28 07:37:40;;;;;;;;;11.67;11.67;;;;;10.78;100.00;101264.25;5071883;27;45390;-78
2022/12/28 07:40:18;;;;;;;;;6.33;6.33;;;;;10.37;100.00;101194.03;5102581;27;45347;-78
2022/12/28 07:42:54;;;;;;;;;6.00;4.00;;;;;10.57;100.00;101220.34;5092860;27;47029;-78
2022/12/28 07:45:22;;;;;;;;;7.33;6.00;;;;;10.67;100.00;101238.81;5067486;28;45592;-78
2022/12/28 07:48:02;;;;;;;;;8.67;8.00;;;;;10.48;100.00;101191.09;5080443;27;45407;-78
2022/12/28 07:50:27;;;;;;;;;4.67;3.33;;;;;10.43;100.00;101188.06;5082148;27;45508;-77
2022/12/28 07:52:52;;;;;;;;;6.00;6.00;;;;;10.67;100.00;101236.16;5083130;27;45541;-78
2022/12/28 07:55:20;;;;;;;;;7.33;7.00;;;;;10.47;100.00;101185.94;5097835;27;45542;-77
2022/12/28 07:57:45;;;;;;;;;9.00;7.33;;;;;10.54;100.00;101191.44;5102493;27;45314;-76
2022/12/28 08:00:11;;;;;;;;;5.67;4.67;;;;;10.46;100.00;101187.78;5103123;27;45304;-78
2022/12/28 08:02:36;;;;;;;;;7.00;7.00;;;;;10.77;100.00;101228.03;5084174;27;45389;-75
2022/12/28 08:05:02;;;;;;;;;7.00;6.33;;;;;10.83;100.00;101240.66;5101045;27;45424;-77
2022/12/28 08:07:27;;;;;;;;;6.00;6.00;;;;;10.80;100.00;101227.69;5097419;27;45426;-77
2022/12/28 08:09:52;;;;;;;;;6.00;5.00;;;;;10.77;100.00;101212.91;5079262;27;45220;-77
2022/12/28 08:12:18;;;;;;;;;6.00;5.00;;;;;10.82;100.00;101218.56;5092244;27;47389;-80
2022/12/28 08:14:43;;;;;;;;;5.33;5.33;;;;;10.85;100.00;101218.25;5064859;27;47385;-80
2022/12/28 08:17:09;;;;;;;;;6.33;5.33;;;;;10.93;100.00;101232.53;5102699;27;45541;-79
2022/12/28 08:19:34;;;;;;;;;2.00;2.00;;;;;10.87;100.00;101212.78;5102540;27;45298;-80
2022/12/28 08:22:00;;;;;;;;;5.33;5.33;;;;;10.92;100.00;101220.25;5102565;27;45302;-80
2022/12/28 08:24:25;;;;;;;;;5.67;4.33;;;;;10.93;100.00;101211.28;5099387;27;45996;-80
2022/12/28 08:26:51;;;;;;;;;7.00;5.33;;;;;10.95;100.00;101209.25;5090463;27;45348;-80
2022/12/28 08:29:20;;;;;;;;;6.33;6.33;;;;;10.98;100.00;101212.44;5075917;27;45297;-80
2022/12/28 08:31:48;;;;;;;;;7.67;6.00;;;;;10.98;100.00;101206.28;5101217;27;45354;-81
2022/12/28 08:34:17;;;;;;;;;6.00;6.00;;;;;10.99;100.00;101208.78;5082390;27;45844;-80
2022/12/28 08:36:43;;;;;;;;;5.00;5.00;;;;;11.01;100.00;101202.47;5082670;27;45465;-79
2022/12/28 08:39:09;;;;;;;;;5.00;5.00;;;;;11.05;100.00;101209.94;5091561;27;45754;-79
2022/12/28 08:41:34;;;;;;;;;6.00;6.00;;;;;11.05;100.00;101203.81;5095557;27;45537;-80
2022/12/28 08:44:00;;;;;;;;;5.67;5.67;;;;;10.90;100.00;101177.88;5078877;27;47100;-80
2022/12/28 08:46:28;;;;;;;;;5.00;5.00;;;;;10.97;100.00;101184.19;5100104;27;45515;-79
2022/12/28 08:48:55;;;;;;;;;5.33;5.33;;;;;10.98;100.00;101175.19;5081715;27;45390;-79
2022/12/28 08:51:24;;;;;;;;;5.67;5.33;;;;;11.01;100.00;101187.31;5100382;27;45508;-79
2022/12/28 08:53:50;;;;;;;;;6.00;6.00;;;;;10.96;100.00;101171.06;5079364;27;47229;-79
2022/12/28 08:56:26;;;;;;;;;6.67;6.67;;;;;10.87;100.00;101156.94;5098940;27;45750;-80
2022/12/28 08:58:52;;;;;;;;;4.67;4.67;;;;;11.04;100.00;101173.69;5089032;27;45464;-80
2022/12/28 09:01:21;;;;;;;;;7.33;6.00;;;;;11.05;100.00;101170.03;5081350;27;45440;-81
2022/12/28 09:03:49;;;;;;;;;6.00;5.00;;;;;11.09;100.00;101168.72;5099596;27;45547;-80
2022/12/28 09:06:17;;;;;;;;;6.67;5.33;;;;;11.14;100.00;101175.38;5083661;27;45792;-81
2022/12/28 09:08:43;;;;;;;;;5.67;4.67;;;;;11.08;100.00;101158.25;5099882;27;45358;-80
2022/12/28 09:11:11;;;;;;;;;6.00;6.00;;;;;11.07;100.00;101149.44;5080210;27;45557;-80
2022/12/28 09:13:36;;;;;;;;;6.67;6.33;;;;;11.08;100.00;101147.59;5079432;27;45512;-80
2022/12/28 09:16:06;;;;;;;;;5.00;5.00;;;;;11.08;100.00;101142.28;5078136;27;45600;-80
2022/12/28 09:18:31;;;;;;;;;8.67;6.00;;;;;11.15;100.00;101145.94;5069495;27;45496;-79
2022/12/28 09:21:03;;;;;;;;;7.67;6.00;;;;;11.21;100.00;101142.59;5099933;27;45453;-79
2022/12/28 09:23:29;;;;;;;;;7.00;7.00;;;;;11.33;100.00;101160.88;5084934;27;47292;-79
2022/12/28 09:25:54;;;;;;;;;7.00;7.00;;;;;11.27;100.00;101129.59;5099914;27;45398;-80
2022/12/28 09:28:20;;;;;;;;;5.33;3.00;;;;;11.45;100.00;101143.56;5079800;27;45659;-80
2022/12/28 09:30:45;;;;;;;;;7.33;7.00;;;;;11.43;100.00;101132.22;5100764;27;45393;-80
2022/12/28 09:36:02;;;;;;;;;5.67;5.67;;;;;11.40;100.00;101116.59;5093510;27;45322;-81
2022/12/28 09:38:30;;;;;;;;;6.00;6.00;;;;;11.48;100.00;101132.56;5064845;27;45538;-80
2022/12/28 09:40:56;;;;;;;;;6.67;6.67;;;;;11.53;100.00;101132.06;5082275;27;45299;-79
2022/12/28 09:43:22;;;;;;;;;6.33;6.33;;;;;11.67;100.00;101146.47;5078964;27;45392;-80
2022/12/28 09:45:49;;;;;;;;;6.33;6.00;;;;;11.67;100.00;101143.81;5090311;27;45161;-79
2022/12/28 09:48:21;;;;;;;;;7.00;6.00;;;;;11.54;100.00;101114.25;5099323;27;45298;-80
2022/12/28 09:50:49;;;;;;;;;5.67;5.67;;;;;11.69;100.00;101139.16;5082022;27;47475;-80
2022/12/28 09:53:35;;;;;;;;;5.67;5.00;;;;;11.67;100.00;101133.16;5099514;27;46214;-81
2022/12/28 09:56:15;;;;;;;;;5.00;5.00;;;;;11.82;100.00;101148.44;5099656;27;45450;-79
2022/12/28 09:58:43;;;;;;;;;6.33;5.67;;;;;11.77;100.00;101132.13;5100057;27;45427;-81
2022/12/28 10:01:13;;;;;;;;;4.67;4.67;;;;;11.78;100.00;101134.63;5096263;27;45343;-80
2022/12/28 10:03:40;;;;;;;;;7.00;5.33;;;;;11.82;100.00;101133.28;5071118;27;48290;-80
2022/12/28 10:06:12;;;;;;;;;6.00;5.33;;;;;11.90;100.00;101143.06;5102665;27;45307;-80
2022/12/28 10:08:44;;;;;;;;;5.33;5.33;;;;;11.79;100.00;101114.16;5108194;27;45809;-80
2022/12/28 10:11:17;;;;;;;;;7.00;6.00;;;;;11.94;100.00;101127.59;5100020;27;45365;-79
2022/12/28 10:13:43;;;;;;;;;5.67;5.67;;;;;11.99;100.00;101127.88;5080862;27;46530;-79
2022/12/28 10:16:19;;;;;;;;;5.00;5.00;;;;;11.99;100.00;101125.22;5100103;27;45355;-79
2022/12/28 10:18:46;;;;;;;;;7.00;5.00;;;;;12.01;100.00;101125.88;5096698;27;45495;-80
2022/12/28 10:21:11;;;;;;;;;8.33;8.33;;;;;12.06;100.00;101130.69;5079059;28;45614;-80
2022/12/28 10:23:39;;;;;;;;;7.67;7.67;;;;;12.05;100.00;101119.19;5078773;28;45899;-79
2022/12/28 10:26:05;;;;;;;;;6.00;5.00;;;;;12.16;100.00;101114.50;5078896;28;45446;-80
2022/12/28 10:28:43;;;;;;;;;6.33;6.33;;;;;12.23;100.00;101118.13;5076842;28;45493;-79
2022/12/28 10:31:10;;;;;;;;;7.00;7.00;;;;;12.20;100.00;101108.66;5079401;28;45342;-80
2022/12/28 10:33:41;;;;;;;;;3.00;3.00;;;;;12.27;100.00;101107.94;5059224;28;46206;-79
2022/12/28 10:36:13;;;;;;;;;12.33;8.33;;;;;12.31;100.00;101106.59;5051315;28;45834;-79
2022/12/28 10:38:42;;;;;;;;;6.67;6.00;;;;;12.32;100.00;101109.06;5076893;28;45337;-79
2022/12/28 10:41:18;;;;;;;;;5.00;5.00;;;;;12.30;100.00;101103.06;5079354;28;45386;-79
2022/12/28 10:43:48;;;;;;;;;51.50;44.00;;;;;12.37;100.00;101103.22;5079115;28;46251;-79
2022/12/28 10:46:24;;;;;;;;;51.75;44.00;;;;;12.37;100.00;101100.53;5079563;28;45316;-77
2022/12/28 10:48:53;;;;;;;;;50.00;41.50;;;;;12.33;100.00;101086.72;5079761;28;45323;-79
2022/12/28 10:51:21;;;;;;;;;16.00;16.00;;;;;12.47;100.00;101094.97;5059617;28;45490;-79
2022/12/28 10:53:53;;;;;;;;;5.00;5.00;;;;;12.48;100.00;101094.78;5076125;27;46352;-78
2022/12/28 10:56:21;;;;;;;;;3.67;3.67;;;;;12.49;100.00;101088.44;5059715;28;45505;-78
2022/12/28 10:58:52;;;;;;;;;5.33;4.00;;;;;12.50;100.00;101091.94;5079306;28;45298;-79
2022/12/28 11:01:19;;;;;;;;;5.00;5.00;;;;;12.50;100.00;101082.13;5076705;28;45453;-79
2022/12/28 11:04:14;;;;;;;;;5.00;5.00;;;;;12.53;100.00;101074.75;5078593;27;46097;-78
2022/12/28 11:07:25;;;;;;;;;12.33;12.33;;;;;12.54;100.00;101061.25;5066111;28;45726;-79
2022/12/28 11:09:50;;;;;;;;;5.00;5.00;;;;;12.48;100.00;101052.13;5064170;28;45311;-80
2022/12/28 11:12:21;;;;;;;;;7.67;6.67;;;;;12.49;100.00;101056.44;5090630;27;45330;-79
2022/12/28 11:14:47;;;;;;;;;7.00;6.00;;;;;12.47;100.00;101049.66;5080273;28;45692;-79
2022/12/28 11:17:27;;;;;;;;;3.00;2.00;;;;;12.21;100.00;101011.72;5083701;28;45450;-79
2022/12/28 11:19:57;;;;;;;;;11.67;11.67;;;;;12.36;100.00;101037.56;5081385;27;45476;-81
2022/12/28 11:22:26;;;;;;;;;10.00;10.00;;;;;12.51;100.00;101050.94;5068226;28;46177;-80
2022/12/28 11:24:52;;;;;;;;;10.67;10.67;;;;;12.45;100.00;101025.84;5083976;28;45715;-81
2022/12/28 11:27:21;;;;;;;;;14.67;14.67;;;;;12.56;100.00;101019.25;5074673;28;45328;-80
2022/12/28 11:29:50;;;;;;;;;150.50;139.75;;;;;12.58;100.00;101006.59;5065300;28;45394;-79
2022/12/28 11:32:22;;;;;;;;;50.50;42.00;;;;;12.65;100.00;101012.00;5081940;28;45410;-81
2022/12/28 11:34:49;;;;;;;;;13.33;12.00;;;;;12.34;100.00;100955.16;5080883;28;45359;-79
2022/12/28 11:37:15;;;;;;;;;12.33;12.33;;;;;12.62;100.00;100991.03;5079884;28;45335;-80
2022/12/28 11:39:43;;;;;;;;;27.67;27.67;;;;;12.65;100.00;100988.00;5072853;28;45331;-79
2022/12/28 11:42:10;;;;;;;;;15.67;14.33;;;;;12.71;100.00;100995.28;5054035;28;46022;-79
2022/12/28 11:44:38;;;;;;;;;14.33;13.33;;;;;12.74;100.00;100984.25;5072199;28;45457;-80
2022/12/28 11:47:20;;;;;;;;;31.33;29.33;;;;;12.78;100.00;100970.56;5060873;28;46269;-80
2022/12/28 11:49:46;;;;;;;;;4.67;4.67;;;;;12.81;100.00;100971.00;5077934;28;45488;-79
2022/12/28 11:52:25;;;;;;;;;4.00;4.00;;;;;12.82;100.00;100975.34;5059709;28;45463;-79
2022/12/28 11:54:56;;;;;;;;;40.33;35.00;;;;;12.75;100.00;100959.22;5078120;28;45444;-80
2022/12/28 11:57:39;;;;;;;;;8.33;8.33;;;;;12.75;100.00;100953.91;5061322;28;47572;-79